Dimmick, Illinois
Current Conditions -  °F | °C
As of 6:35 AM on Monday 26 Jan 2015 (Local Time) from KVYS Reporting Station
Clear Clear  
Wind Chill: 17°   Ceiling: Unl
Heat Index: 17°   Visibility: 10mi
Dew Point: 14°   Wind: 3mph
Humidity: 89%   Direction: 260°W
Pressure: 29.99"   Gusts: NA
Location:  41.3955°N, 89.0957°W
Report Text: KVYS 261235Z AUTO 26003KT 10SM CLR M08/M10 A2999 RMK AO2 T10851100
Loading
Personal Weather Stations






























Interactive Weather Map New forecast layout! Learn more

10-Day Weather Forecast

Advertisements
Track Severe Weather on mobile